sim
Sign-in with your pilot id or email,
or register
Callsign
Passwort

Schedule Details

Flight Number: EWG1834 (1)
Departure: Munich Airport (EDDM) at 18:35
Arrival: Amsterdam Schiphol Airport (EHAM) at 20:05
Route: Eurowings Passenger Schedule. Enter filed route here before submitting Pirep.

Weather Information
Getting current METAR information for EDDM 220320Z 33001KT 2500 0500S R08L/0650N R08R/0450U BCFG FEW001 08/07 Q1015 BECMG 3000
Getting current METAR information for EHAM 220325Z 32002KT 1500 0300NW R18C/0225D R27/1300U R18R/0325D R06/1900N BCFG FEW001 09/09 Q1012 TEMPO 0500 FG

Schedule Frequency

Route Map